createdAt,value
2022-08-22T00:02:13.723Z,14.70
2022-08-22T00:02:52.479Z,18.80
2022-08-22T00:02:57.731Z,15.00
2022-08-22T00:03:01.583Z,15.70
2022-08-22T00:03:02.138Z,15.60
2022-08-22T00:03:09.504Z,15.30
2022-08-22T00:03:11.473Z,15.10
2022-08-22T00:04:55.717Z,14.70
2022-08-22T00:07:42.023Z,14.70
2022-08-22T00:10:31.713Z,14.60
2022-08-22T00:13:07.637Z,14.60
2022-08-22T00:15:47.713Z,14.60
2022-08-22T00:18:32.079Z,14.60
2022-08-22T00:21:29.717Z,14.60
2022-08-22T00:24:09.984Z,14.60
2022-08-22T00:27:01.721Z,14.60
2022-08-22T00:29:58.754Z,14.60
2022-08-22T00:32:43.801Z,14.50
2022-08-22T00:35:24.240Z,14.50
2022-08-22T00:38:11.765Z,14.50
2022-08-22T00:40:57.464Z,14.50
2022-08-22T00:44:04.714Z,14.50
2022-08-22T00:46:55.960Z,14.50
2022-08-22T00:49:59.753Z,14.50
2022-08-22T00:53:01.775Z,14.40
2022-08-22T00:56:01.691Z,14.40
2022-08-22T00:58:58.801Z,14.40
2022-08-22T01:01:33.266Z,14.40
2022-08-22T01:04:17.740Z,14.40
2022-08-22T01:07:24.785Z,14.30
2022-08-22T01:10:44.368Z,14.30
2022-08-22T01:13:49.770Z,14.30
2022-08-22T01:17:07.744Z,14.30
2022-08-22T01:20:08.495Z,14.30
2022-08-22T01:23:13.782Z,14.30
2022-08-22T01:25:40.492Z,14.30
2022-08-22T01:28:51.776Z,14.30
2022-08-22T01:31:54.815Z,14.30
2022-08-22T01:34:40.976Z,14.30
2022-08-22T01:37:49.729Z,14.30
2022-08-22T01:41:00.725Z,14.30
2022-08-22T01:44:00.018Z,14.30
2022-08-22T01:47:03.761Z,14.30
2022-08-22T01:49:44.071Z,14.20
2022-08-22T01:52:39.717Z,14.20
2022-08-22T01:55:21.288Z,14.20
2022-08-22T01:58:04.800Z,14.20
2022-08-22T02:00:50.726Z,14.20
2022-08-22T02:03:37.811Z,14.20
2022-08-22T02:06:24.256Z,14.20
2022-08-22T02:09:08.759Z,14.10
2022-08-22T02:11:51.721Z,14.10
2022-08-22T02:14:39.714Z,14.10
2022-08-22T02:17:24.730Z,14.10
2022-08-22T02:20:24.718Z,14.10
2022-08-22T02:22:57.897Z,14.10
2022-08-22T02:25:36.794Z,14.10
2022-08-22T02:28:17.717Z,14.10
2022-08-22T02:31:03.999Z,14.10
2022-08-22T02:33:53.814Z,14.10
2022-08-22T02:36:40.158Z,14.10
2022-08-22T02:39:39.773Z,14.10
2022-08-22T02:42:23.873Z,14.10
2022-08-22T02:45:17.736Z,14.10
2022-08-22T02:48:06.783Z,14.10
2022-08-22T02:50:45.258Z,14.10
2022-08-22T02:53:25.716Z,14.10
2022-08-22T02:56:43.807Z,14.10
2022-08-22T02:59:41.744Z,14.10
2022-08-22T03:02:51.784Z,14.10
2022-08-22T03:05:23.576Z,14.10
2022-08-22T03:08:20.086Z,14.00
2022-08-22T03:11:07.644Z,14.00
2022-08-22T03:14:09.710Z,14.00
2022-08-22T03:16:43.124Z,14.00
2022-08-22T03:19:28.770Z,14.00
2022-08-22T03:22:04.455Z,14.00
2022-08-22T03:25:00.733Z,14.00
2022-08-22T03:27:50.003Z,14.00
2022-08-22T03:30:28.722Z,14.00
2022-08-22T03:32:59.406Z,13.90
2022-08-22T03:35:32.785Z,13.90
2022-08-22T03:38:18.530Z,13.90
2022-08-22T03:41:15.822Z,13.90
2022-08-22T03:44:36.377Z,13.90
2022-08-22T03:47:38.780Z,13.90
2022-08-22T03:50:35.693Z,13.90
2022-08-22T03:53:33.780Z,13.90
2022-08-22T03:56:40.712Z,13.90
2022-08-22T03:59:42.731Z,13.90
2022-08-22T04:03:01.773Z,13.90
2022-08-22T04:06:04.910Z,13.90
2022-08-22T04:09:15.734Z,13.90
2022-08-22T04:12:14.722Z,13.90
2022-08-22T04:15:03.109Z,13.90
2022-08-22T04:18:14.712Z,13.90
2022-08-22T04:21:21.728Z,13.90
2022-08-22T04:24:22.725Z,13.90
2022-08-22T04:27:02.743Z,13.90
2022-08-22T04:29:39.044Z,14.00
2022-08-22T04:32:14.885Z,14.00
2022-08-22T04:35:05.521Z,14.10
2022-08-22T04:37:51.826Z,14.10
2022-08-22T04:40:37.344Z,14.10
2022-08-22T04:43:20.724Z,14.20
2022-08-22T04:46:08.724Z,14.20
2022-08-22T04:48:41.602Z,14.20
2022-08-22T04:51:25.793Z,14.30
2022-08-22T04:54:32.776Z,14.30
2022-08-22T04:57:22.787Z,14.40
2022-08-22T04:59:50.421Z,14.50
2022-08-22T05:02:31.732Z,14.50
2022-08-22T05:05:15.985Z,14.60
2022-08-22T05:07:54.853Z,14.60
2022-08-22T05:10:32.730Z,14.60
2022-08-22T05:13:06.061Z,14.70
2022-08-22T05:15:45.731Z,14.80
2022-08-22T05:18:29.790Z,14.80
2022-08-22T05:21:07.806Z,14.90
2022-08-22T05:23:48.396Z,14.90
2022-08-22T05:26:23.753Z,15.00
2022-08-22T05:28:56.335Z,15.10
2022-08-22T05:31:43.790Z,15.20
2022-08-22T05:34:18.191Z,15.30
2022-08-22T05:36:57.716Z,15.30
2022-08-22T05:39:33.814Z,15.40
2022-08-22T05:42:03.522Z,15.50
2022-08-22T05:44:42.769Z,15.60
2022-08-22T05:47:44.735Z,15.70
2022-08-22T05:50:35.289Z,15.70
2022-08-22T05:53:12.751Z,15.80
2022-08-22T05:55:48.627Z,15.90
2022-08-22T05:58:43.749Z,16.00
2022-08-22T06:01:44.053Z,16.10
2022-08-22T06:04:19.752Z,16.20
2022-08-22T06:07:19.597Z,16.30
2022-08-22T06:09:52.720Z,16.40
2022-08-22T06:12:37.796Z,16.40
2022-08-22T06:15:48.728Z,16.50
2022-08-22T06:18:29.792Z,16.60
2022-08-22T06:21:10.794Z,16.60
2022-08-22T06:24:03.745Z,16.70
2022-08-22T06:26:37.936Z,16.80
2022-08-22T06:29:13.806Z,16.90
2022-08-22T06:31:53.750Z,16.90
2022-08-22T06:34:40.741Z,17.00
2022-08-22T06:37:19.017Z,17.10
2022-08-22T06:39:49.922Z,17.10
2022-08-22T06:42:34.741Z,17.20
2022-08-22T06:45:10.054Z,17.20
2022-08-22T06:47:50.159Z,17.30
2022-08-22T06:50:23.969Z,17.50
2022-08-22T06:53:18.788Z,17.50
2022-08-22T06:55:59.438Z,17.60
2022-08-22T06:58:56.831Z,17.70
2022-08-22T07:01:27.748Z,17.80
2022-08-22T07:04:06.752Z,17.90
2022-08-22T07:06:43.191Z,18.00
2022-08-22T07:09:38.754Z,18.00
2022-08-22T07:12:15.903Z,18.10
2022-08-22T07:14:55.805Z,18.20
2022-08-22T07:17:32.696Z,18.30
2022-08-22T07:20:17.735Z,18.40
2022-08-22T07:23:05.826Z,18.50
2022-08-22T07:25:43.016Z,18.60
2022-08-22T07:28:51.155Z,18.80
2022-08-22T07:32:03.804Z,18.90
2022-08-22T07:35:08.405Z,19.10
2022-08-22T07:37:52.739Z,19.20
2022-08-22T07:40:35.607Z,19.30
2022-08-22T07:43:37.752Z,19.50
2022-08-22T07:46:22.149Z,19.70
2022-08-22T07:49:09.237Z,19.70
2022-08-22T07:51:45.044Z,19.80
2022-08-22T07:54:21.728Z,19.90
2022-08-22T07:57:20.718Z,20.00
2022-08-22T08:00:01.811Z,20.10
2022-08-22T08:02:29.144Z,20.30
2022-08-22T08:05:00.245Z,20.40
2022-08-22T08:07:35.765Z,20.60
2022-08-22T08:10:13.106Z,20.80
2022-08-22T08:13:02.439Z,20.90
2022-08-22T08:15:38.744Z,21.10
2022-08-22T08:18:12.325Z,21.00
2022-08-22T08:20:45.804Z,21.10
2022-08-22T08:23:19.511Z,21.30
2022-08-22T08:26:22.749Z,21.30
2022-08-22T08:28:53.325Z,21.40
2022-08-22T08:31:43.361Z,21.60
2022-08-22T08:34:28.759Z,21.70
2022-08-22T08:37:08.792Z,21.80
2022-08-22T08:39:57.890Z,21.90
2022-08-22T08:43:21.816Z,21.80
2022-08-22T08:46:14.334Z,22.00
2022-08-22T08:49:06.834Z,22.10
2022-08-22T08:52:01.214Z,22.00
2022-08-22T08:54:53.834Z,22.20
2022-08-22T08:57:54.837Z,22.20
2022-08-22T09:00:52.873Z,22.20
2022-08-22T09:03:54.748Z,22.20
2022-08-22T09:07:01.766Z,22.30
2022-08-22T09:09:43.100Z,22.40
2022-08-22T09:12:23.840Z,22.50
2022-08-22T09:15:14.500Z,22.70
2022-08-22T09:18:18.122Z,22.90
2022-08-22T09:21:06.321Z,22.90
2022-08-22T09:24:11.760Z,22.90
2022-08-22T09:27:08.657Z,22.80
2022-08-22T09:30:19.756Z,23.00
2022-08-22T09:33:11.697Z,22.90
2022-08-22T09:35:57.832Z,22.90
2022-08-22T09:38:27.601Z,23.00
2022-08-22T09:41:21.765Z,23.10
2022-08-22T09:44:00.408Z,23.10
2022-08-22T09:46:39.792Z,23.20
2022-08-22T09:49:33.797Z,23.20
2022-08-22T09:52:34.052Z,23.50
2022-08-22T09:55:34.925Z,23.50
2022-08-22T09:58:22.760Z,23.30
2022-08-22T13:21:31.968Z,25.90
2022-08-22T13:24:11.909Z,25.70
2022-08-22T13:26:50.420Z,25.60
2022-08-22T13:29:42.909Z,25.60
2022-08-22T13:32:24.298Z,25.40
2022-08-22T13:34:56.967Z,25.60
2022-08-22T13:37:31.363Z,25.80
2022-08-22T13:40:02.730Z,26.00
2022-08-22T13:42:33.456Z,25.90
2022-08-22T13:45:05.573Z,25.80
2022-08-22T13:47:39.544Z,25.60
2022-08-22T13:50:19.021Z,25.30
2022-08-22T13:53:04.983Z,25.30
2022-08-22T13:55:44.534Z,25.50
2022-08-22T13:58:34.096Z,25.90
2022-08-22T14:01:38.669Z,26.20
2022-08-22T14:04:32.044Z,26.20
2022-08-22T14:07:03.386Z,26.60
2022-08-22T14:09:54.336Z,27.00
2022-08-22T14:12:50.584Z,27.00
2022-08-22T14:15:33.995Z,26.60
2022-08-22T14:18:30.521Z,26.60
2022-08-22T14:21:26.468Z,26.70
2022-08-22T14:23:59.042Z,26.50
2022-08-22T14:26:34.258Z,26.30
2022-08-22T14:29:18.665Z,26.30
2022-08-22T14:32:23.364Z,26.20
2022-08-22T14:35:16.263Z,26.20
2022-08-22T14:38:17.492Z,26.20
2022-08-22T14:40:45.616Z,26.20
2022-08-22T14:43:40.641Z,25.70
2022-08-22T14:46:12.542Z,25.60
2022-08-22T14:48:56.097Z,25.60
2022-08-22T14:51:25.487Z,25.70
2022-08-22T14:53:52.686Z,25.70
2022-08-22T14:56:24.337Z,25.60
2022-08-22T14:58:57.217Z,25.50
2022-08-22T15:01:29.934Z,25.30
2022-08-22T15:04:09.595Z,25.10
2022-08-22T15:06:54.443Z,25.20
2022-08-22T15:10:01.064Z,25.30
2022-08-22T15:12:33.727Z,25.40
2022-08-22T15:15:04.295Z,25.40
2022-08-22T15:21:30.289Z,25.30
2022-08-22T15:24:06.238Z,25.30
2022-08-22T15:26:39.617Z,25.40
2022-08-22T15:29:29.020Z,25.30
2022-08-22T15:32:01.164Z,25.40
2022-08-22T15:34:39.157Z,25.20
2022-08-22T15:37:33.319Z,25.10
2022-08-22T15:40:11.611Z,24.70
2022-08-22T15:42:47.078Z,24.60
2022-08-22T15:45:38.715Z,24.70
2022-08-22T15:48:11.413Z,24.80
2022-08-22T15:51:02.600Z,24.70
2022-08-22T15:54:03.118Z,24.80
2022-08-22T15:57:15.441Z,24.70
2022-08-22T15:59:53.983Z,24.70
2022-08-22T16:02:27.864Z,24.70
2022-08-22T16:05:24.704Z,24.70
2022-08-22T16:07:59.775Z,24.80
2022-08-22T16:10:27.308Z,24.70
2022-08-22T16:13:12.941Z,24.70
2022-08-22T16:15:52.651Z,24.70
2022-08-22T16:18:35.278Z,24.60
2022-08-22T16:21:08.228Z,24.60
2022-08-22T16:23:49.759Z,24.60
2022-08-22T16:26:19.091Z,24.60
2022-08-22T16:29:12.542Z,24.50
2022-08-22T16:31:44.032Z,24.50
2022-08-22T16:34:16.991Z,24.40
2022-08-22T16:36:48.888Z,24.50
2022-08-22T16:39:21.689Z,24.50
2022-08-22T16:41:52.663Z,24.50
2022-08-22T16:44:28.352Z,24.50
2022-08-22T16:47:14.979Z,24.50
2022-08-22T16:49:50.678Z,24.40
2022-08-22T16:52:26.345Z,24.30
2022-08-22T16:54:58.927Z,24.10
2022-08-22T16:58:04.991Z,24.00
2022-08-22T17:00:41.978Z,23.90
2022-08-22T17:03:14.474Z,23.70
2022-08-22T17:05:51.741Z,23.60
2022-08-22T17:08:21.076Z,23.40
2022-08-22T17:11:30.784Z,23.20
2022-08-22T17:14:18.777Z,23.10
2022-08-22T17:17:18.060Z,23.00
2022-08-22T17:20:06.945Z,22.90
2022-08-22T17:23:00.213Z,22.80
2022-08-22T17:25:52.156Z,22.70
2022-08-22T17:28:40.829Z,22.60
2022-08-22T17:32:06.704Z,22.60
2022-08-22T17:34:48.498Z,22.50
2022-08-22T17:37:52.272Z,22.40
2022-08-22T17:40:28.714Z,22.30
2022-08-22T17:43:09.540Z,22.20
2022-08-22T17:45:57.756Z,22.20
2022-08-22T17:48:31.065Z,22.10
2022-08-22T17:51:38.894Z,22.00
2022-08-22T17:54:41.105Z,21.90
2022-08-22T17:57:24.873Z,21.90
2022-08-22T18:00:16.625Z,21.80
2022-08-22T18:03:01.478Z,21.70
2022-08-22T18:05:46.764Z,21.60
2022-08-22T18:11:44.616Z,21.40
2022-08-22T18:14:33.521Z,21.30
2022-08-22T18:17:01.108Z,21.20
2022-08-22T18:19:50.960Z,21.20
2022-08-22T18:22:30.230Z,21.10
2022-08-22T18:25:07.684Z,21.10
2022-08-22T18:28:25.187Z,21.00
2022-08-22T18:31:06.933Z,21.00
2022-08-22T18:33:43.857Z,20.90
2022-08-22T18:36:27.199Z,20.90
2022-08-22T18:38:57.217Z,20.80
2022-08-22T18:41:57.154Z,20.70
2022-08-22T18:44:29.689Z,20.60
2022-08-22T18:47:11.184Z,20.60
2022-08-22T18:49:43.301Z,20.60
2022-08-22T18:52:09.882Z,20.60
2022-08-22T18:54:52.406Z,20.50
2022-08-22T18:57:48.874Z,20.40
2022-08-22T19:00:21.862Z,20.50
2022-08-22T19:03:08.892Z,20.40
2022-08-22T19:05:48.048Z,20.40
2022-08-22T19:08:53.537Z,20.30
2022-08-22T19:11:37.285Z,20.30
2022-08-22T19:14:47.540Z,20.20
2022-08-22T19:17:44.542Z,20.20
2022-08-22T19:20:50.610Z,20.20
2022-08-22T19:23:41.683Z,20.20
2022-08-22T19:26:48.064Z,20.00
2022-08-22T19:29:17.583Z,20.00
2022-08-22T19:31:59.692Z,19.90
2022-08-22T19:34:30.359Z,19.90
2022-08-22T19:37:32.457Z,19.80
2022-08-22T19:40:40.599Z,19.80
2022-08-22T19:43:30.684Z,19.80
2022-08-22T19:45:59.796Z,19.70
2022-08-22T19:48:31.397Z,19.70
2022-08-22T19:51:11.187Z,19.70
2022-08-22T19:53:48.090Z,19.70
2022-08-22T19:56:36.763Z,19.70
2022-08-22T19:59:12.162Z,19.70
2022-08-22T20:01:49.315Z,19.70
2022-08-22T20:04:47.622Z,19.70
2022-08-22T20:07:28.229Z,19.70
2022-08-22T20:10:20.225Z,19.70
2022-08-22T20:13:19.490Z,19.60
2022-08-22T20:16:18.465Z,19.60
2022-08-22T20:19:06.050Z,19.60
2022-08-22T20:21:44.857Z,19.50
2022-08-22T20:24:19.164Z,19.50
2022-08-22T20:27:12.037Z,19.50
2022-08-22T20:29:39.750Z,19.40
2022-08-22T20:32:06.672Z,19.40
2022-08-22T20:34:37.869Z,19.40
2022-08-22T20:37:31.983Z,19.40
2022-08-22T20:40:24.399Z,19.30
2022-08-22T20:43:24.244Z,19.30
2022-08-22T20:46:06.980Z,19.30
2022-08-22T20:48:39.816Z,19.30
2022-08-22T20:51:09.384Z,19.20
2022-08-22T20:53:36.507Z,19.20
2022-08-22T20:56:05.447Z,19.20
2022-08-22T20:58:37.708Z,19.20
2022-08-22T21:01:05.987Z,19.20
2022-08-22T21:03:43.635Z,19.20
2022-08-22T21:06:17.208Z,19.10
2022-08-22T21:08:45.130Z,19.10
2022-08-22T21:11:40.166Z,19.10
2022-08-22T21:14:24.170Z,19.10
2022-08-22T21:16:51.870Z,19.10
2022-08-22T21:19:28.547Z,19.00
2022-08-22T21:22:11.556Z,19.00
2022-08-22T21:24:38.246Z,19.00
2022-08-22T21:27:06.654Z,19.00
2022-08-22T21:29:42.073Z,19.00
2022-08-22T21:32:39.261Z,19.00
2022-08-22T21:35:19.288Z,19.00
2022-08-22T21:37:46.504Z,19.00
2022-08-22T21:40:19.983Z,18.90
2022-08-22T21:43:07.082Z,18.90
2022-08-22T21:45:38.364Z,18.90
2022-08-22T21:48:37.772Z,18.90
2022-08-22T21:51:27.393Z,18.90
2022-08-22T21:54:21.601Z,18.80
2022-08-22T21:56:51.008Z,18.80
2022-08-22T21:59:50.577Z,18.80
2022-08-22T22:02:37.396Z,18.80
2022-08-22T22:05:11.596Z,18.70
2022-08-22T22:07:41.257Z,18.70
2022-08-22T22:10:10.330Z,18.70
2022-08-22T22:12:43.305Z,18.70
2022-08-22T22:15:14.624Z,18.70
2022-08-22T22:17:41.291Z,18.60
2022-08-22T22:20:08.455Z,18.60
2022-08-22T22:22:36.984Z,18.60
2022-08-22T22:25:41.258Z,18.60
2022-08-22T22:28:00.139Z,18.60
2022-08-22T22:30:26.974Z,18.60
2022-08-22T22:32:53.632Z,18.50
2022-08-22T22:35:21.640Z,18.60
2022-08-22T22:37:48.448Z,18.60
2022-08-22T22:40:15.330Z,18.50
2022-08-22T22:42:42.122Z,18.50
2022-08-22T22:45:10.780Z,18.40
2022-08-22T22:47:37.684Z,18.40
2022-08-22T22:50:05.313Z,18.40
2022-08-22T22:52:32.049Z,18.30
2022-08-22T22:54:58.722Z,18.30
2022-08-22T22:57:25.813Z,18.30
2022-08-22T22:59:52.548Z,18.30
2022-08-22T23:02:22.161Z,18.30
2022-08-22T23:04:55.230Z,18.20
2022-08-22T23:07:24.773Z,18.20
2022-08-22T23:09:54.382Z,18.20
2022-08-22T23:12:24.972Z,18.10
2022-08-22T23:14:51.909Z,18.10
2022-08-22T23:17:19.889Z,18.10
2022-08-22T23:19:46.540Z,18.10
2022-08-22T23:22:14.461Z,18.00
2022-08-22T23:24:41.233Z,18.00
2022-08-22T23:27:09.648Z,18.00
2022-08-22T23:29:38.588Z,18.00
2022-08-22T23:32:05.788Z,18.00
2022-08-22T23:34:39.055Z,18.00
2022-08-22T23:37:07.998Z,18.00
2022-08-22T23:39:35.661Z,18.00
2022-08-22T23:42:02.780Z,17.90
2022-08-22T23:44:31.927Z,18.00
2022-08-22T23:46:59.504Z,18.00
2022-08-22T23:49:27.322Z,18.00
2022-08-22T23:51:54.701Z,18.00
2022-08-22T23:54:22.643Z,18.00
2022-08-22T23:56:57.526Z,17.90
2022-08-22T23:59:30.614Z,18.00
